sensor_id;sensor_type;location;lat;lon;timestamp;P1;durP1;ratioP1;P2;durP2;ratioP2
66856;SDS011;53766;50.280;19.160;2022-11-06T00:01:49;8.10;;;4.20;;
66856;SDS011;53766;50.280;19.160;2022-11-06T00:04:17;8.43;;;4.70;;
66856;SDS011;53766;50.280;19.160;2022-11-06T00:06:44;7.43;;;4.05;;
66856;SDS011;53766;50.280;19.160;2022-11-06T00:09:19;7.18;;;4.20;;
66856;SDS011;53766;50.280;19.160;2022-11-06T00:11:48;8.18;;;4.22;;
66856;SDS011;53766;50.280;19.160;2022-11-06T00:14:16;6.72;;;3.85;;
66856;SDS011;53766;50.280;19.160;2022-11-06T00:16:46;7.38;;;4.25;;
66856;SDS011;53766;50.280;19.160;2022-11-06T00:19:13;7.25;;;4.00;;
66856;SDS011;53766;50.280;19.160;2022-11-06T00:21:42;6.90;;;3.90;;
66856;SDS011;53766;50.280;19.160;2022-11-06T00:24:11;8.13;;;3.85;;
66856;SDS011;53766;50.280;19.160;2022-11-06T00:26:40;7.45;;;4.28;;
66856;SDS011;53766;50.280;19.160;2022-11-06T00:29:12;7.40;;;4.13;;
66856;SDS011;53766;50.280;19.160;2022-11-06T00:31:41;6.65;;;4.20;;
66856;SDS011;53766;50.280;19.160;2022-11-06T00:34:09;8.05;;;4.65;;
66856;SDS011;53766;50.280;19.160;2022-11-06T00:36:37;7.68;;;4.28;;
66856;SDS011;53766;50.280;19.160;2022-11-06T00:39:04;8.07;;;4.20;;
66856;SDS011;53766;50.280;19.160;2022-11-06T00:41:32;8.15;;;4.45;;
66856;SDS011;53766;50.280;19.160;2022-11-06T00:44:00;10.68;;;4.32;;
66856;SDS011;53766;50.280;19.160;2022-11-06T00:46:29;7.05;;;4.10;;
66856;SDS011;53766;50.280;19.160;2022-11-06T00:48:56;6.35;;;3.90;;
66856;SDS011;53766;50.280;19.160;2022-11-06T00:51:29;8.02;;;4.28;;
66856;SDS011;53766;50.280;19.160;2022-11-06T00:53:59;7.28;;;3.95;;
66856;SDS011;53766;50.280;19.160;2022-11-06T00:56:28;7.43;;;4.15;;
66856;SDS011;53766;50.280;19.160;2022-11-06T00:59:00;8.40;;;4.20;;
66856;SDS011;53766;50.280;19.160;2022-11-06T01:01:30;6.05;;;3.80;;
66856;SDS011;53766;50.280;19.160;2022-11-06T01:06:32;7.22;;;4.13;;
66856;SDS011;53766;50.280;19.160;2022-11-06T01:09:02;7.72;;;4.25;;
66856;SDS011;53766;50.280;19.160;2022-11-06T01:11:35;7.93;;;4.65;;
66856;SDS011;53766;50.280;19.160;2022-11-06T01:14:28;8.23;;;4.30;;
66856;SDS011;53766;50.280;19.160;2022-11-06T01:16:55;8.02;;;4.50;;
66856;SDS011;53766;50.280;19.160;2022-11-06T01:19:23;7.28;;;4.10;;
66856;SDS011;53766;50.280;19.160;2022-11-06T01:21:51;8.40;;;4.18;;
66856;SDS011;53766;50.280;19.160;2022-11-06T01:24:24;7.68;;;4.10;;
66856;SDS011;53766;50.280;19.160;2022-11-06T01:26:53;6.88;;;4.55;;
66856;SDS011;53766;50.280;19.160;2022-11-06T01:29:41;6.10;;;4.15;;
66856;SDS011;53766;50.280;19.160;2022-11-06T01:32:10;6.38;;;3.78;;
66856;SDS011;53766;50.280;19.160;2022-11-06T01:34:37;6.93;;;4.25;;
66856;SDS011;53766;50.280;19.160;2022-11-06T01:37:05;8.50;;;4.15;;
66856;SDS011;53766;50.280;19.160;2022-11-06T01:39:39;9.93;;;4.38;;
66856;SDS011;53766;50.280;19.160;2022-11-06T01:42:08;7.65;;;4.05;;
66856;SDS011;53766;50.280;19.160;2022-11-06T01:49:55;7.25;;;4.47;;
66856;SDS011;53766;50.280;19.160;2022-11-06T01:52:27;7.13;;;4.20;;
66856;SDS011;53766;50.280;19.160;2022-11-06T01:54:58;8.00;;;4.20;;
66856;SDS011;53766;50.280;19.160;2022-11-06T01:57:34;8.10;;;4.20;;
66856;SDS011;53766;50.280;19.160;2022-11-06T02:00:03;6.30;;;4.07;;
66856;SDS011;53766;50.280;19.160;2022-11-06T02:02:32;8.98;;;4.57;;
66856;SDS011;53766;50.280;19.160;2022-11-06T02:05:01;6.82;;;4.10;;
66856;SDS011;53766;50.280;19.160;2022-11-06T02:07:29;6.20;;;4.00;;
66856;SDS011;53766;50.280;19.160;2022-11-06T02:09:57;5.97;;;3.97;;
66856;SDS011;53766;50.280;19.160;2022-11-06T02:15:13;6.63;;;3.90;;
66856;SDS011;53766;50.280;19.160;2022-11-06T02:29:03;6.80;;;3.72;;
66856;SDS011;53766;50.280;19.160;2022-11-06T02:31:35;7.88;;;4.07;;
66856;SDS011;53766;50.280;19.160;2022-11-06T02:34:11;7.35;;;4.30;;
66856;SDS011;53766;50.280;19.160;2022-11-06T02:36:44;8.38;;;4.47;;
66856;SDS011;53766;50.280;19.160;2022-11-06T02:39:18;7.45;;;4.25;;
66856;SDS011;53766;50.280;19.160;2022-11-06T02:41:49;6.30;;;3.95;;
66856;SDS011;53766;50.280;19.160;2022-11-06T02:44:20;6.93;;;4.00;;
66856;SDS011;53766;50.280;19.160;2022-11-06T02:46:55;6.68;;;3.90;;
66856;SDS011;53766;50.280;19.160;2022-11-06T02:49:30;6.43;;;3.72;;
66856;SDS011;53766;50.280;19.160;2022-11-06T02:52:05;6.45;;;3.80;;
66856;SDS011;53766;50.280;19.160;2022-11-06T02:54:38;7.80;;;4.28;;
66856;SDS011;53766;50.280;19.160;2022-11-06T02:57:11;6.13;;;3.78;;
66856;SDS011;53766;50.280;19.160;2022-11-06T02:59:44;6.80;;;4.35;;
66856;SDS011;53766;50.280;19.160;2022-11-06T03:02:24;7.35;;;4.18;;
66856;SDS011;53766;50.280;19.160;2022-11-06T03:09:57;7.80;;;3.88;;
66856;SDS011;53766;50.280;19.160;2022-11-06T03:15:03;7.00;;;3.63;;
66856;SDS011;53766;50.280;19.160;2022-11-06T03:20:35;7.28;;;3.97;;
66856;SDS011;53766;50.280;19.160;2022-11-06T03:23:31;6.30;;;3.78;;
66856;SDS011;53766;50.280;19.160;2022-11-06T03:26:14;7.88;;;4.15;;
66856;SDS011;53766;50.280;19.160;2022-11-06T03:28:50;8.63;;;4.45;;
66856;SDS011;53766;50.280;19.160;2022-11-06T03:31:26;7.05;;;4.18;;
66856;SDS011;53766;50.280;19.160;2022-11-06T03:34:00;6.47;;;4.03;;
66856;SDS011;53766;50.280;19.160;2022-11-06T03:36:32;6.43;;;3.83;;
66856;SDS011;53766;50.280;19.160;2022-11-06T03:39:06;6.57;;;4.13;;
66856;SDS011;53766;50.280;19.160;2022-11-06T03:42:02;7.43;;;4.07;;
66856;SDS011;53766;50.280;19.160;2022-11-06T03:44:36;7.22;;;4.15;;
66856;SDS011;53766;50.280;19.160;2022-11-06T03:47:11;8.73;;;3.88;;
66856;SDS011;53766;50.280;19.160;2022-11-06T03:52:48;6.55;;;3.92;;
66856;SDS011;53766;50.280;19.160;2022-11-06T03:55:30;7.05;;;4.10;;
66856;SDS011;53766;50.280;19.160;2022-11-06T03:58:16;7.68;;;4.00;;
66856;SDS011;53766;50.280;19.160;2022-11-06T04:03:27;6.85;;;4.10;;
66856;SDS011;53766;50.280;19.160;2022-11-06T04:06:04;7.50;;;4.32;;
66856;SDS011;53766;50.280;19.160;2022-11-06T04:08:37;7.65;;;4.32;;
66856;SDS011;53766;50.280;19.160;2022-11-06T04:11:25;5.05;;;3.60;;
66856;SDS011;53766;50.280;19.160;2022-11-06T04:14:14;8.23;;;4.60;;
66856;SDS011;53766;50.280;19.160;2022-11-06T04:16:48;7.95;;;4.07;;
66856;SDS011;53766;50.280;19.160;2022-11-06T04:19:21;8.00;;;4.25;;
66856;SDS011;53766;50.280;19.160;2022-11-06T04:21:55;8.18;;;3.95;;
66856;SDS011;53766;50.280;19.160;2022-11-06T04:30:38;6.15;;;3.90;;
66856;SDS011;53766;50.280;19.160;2022-11-06T04:33:24;6.18;;;3.65;;
66856;SDS011;53766;50.280;19.160;2022-11-06T04:46:32;6.22;;;4.07;;
66856;SDS011;53766;50.280;19.160;2022-11-06T04:49:03;6.10;;;3.92;;
66856;SDS011;53766;50.280;19.160;2022-11-06T04:51:34;7.35;;;4.07;;
66856;SDS011;53766;50.280;19.160;2022-11-06T04:54:06;5.78;;;3.60;;
66856;SDS011;53766;50.280;19.160;2022-11-06T04:56:36;6.63;;;3.78;;
66856;SDS011;53766;50.280;19.160;2022-11-06T04:59:13;7.13;;;3.83;;
66856;SDS011;53766;50.280;19.160;2022-11-06T05:01:42;8.20;;;3.97;;
66856;SDS011;53766;50.280;19.160;2022-11-06T05:04:11;6.85;;;3.70;;
66856;SDS011;53766;50.280;19.160;2022-11-06T05:06:38;6.18;;;3.90;;
66856;SDS011;53766;50.280;19.160;2022-11-06T05:09:06;7.80;;;3.97;;
66856;SDS011;53766;50.280;19.160;2022-11-06T05:11:33;6.43;;;3.75;;
66856;SDS011;53766;50.280;19.160;2022-11-06T05:14:01;8.40;;;3.85;;
66856;SDS011;53766;50.280;19.160;2022-11-06T05:16:28;6.93;;;4.10;;
66856;SDS011;53766;50.280;19.160;2022-11-06T05:18:56;5.90;;;3.83;;
66856;SDS011;53766;50.280;19.160;2022-11-06T05:21:24;7.00;;;3.92;;
66856;SDS011;53766;50.280;19.160;2022-11-06T05:24:10;6.22;;;3.47;;
66856;SDS011;53766;50.280;19.160;2022-11-06T05:26:37;7.22;;;3.60;;
66856;SDS011;53766;50.280;19.160;2022-11-06T05:29:05;6.82;;;4.00;;
66856;SDS011;53766;50.280;19.160;2022-11-06T05:31:32;10.38;;;3.60;;
66856;SDS011;53766;50.280;19.160;2022-11-06T05:34:00;6.30;;;3.75;;
66856;SDS011;53766;50.280;19.160;2022-11-06T05:36:27;7.95;;;4.20;;
66856;SDS011;53766;50.280;19.160;2022-11-06T05:38:55;8.88;;;3.70;;
66856;SDS011;53766;50.280;19.160;2022-11-06T05:41:22;9.10;;;3.80;;
66856;SDS011;53766;50.280;19.160;2022-11-06T05:43:50;8.50;;;4.10;;
66856;SDS011;53766;50.280;19.160;2022-11-06T05:46:17;9.60;;;3.95;;
66856;SDS011;53766;50.280;19.160;2022-11-06T05:49:05;6.65;;;3.65;;
66856;SDS011;53766;50.280;19.160;2022-11-06T05:51:32;9.57;;;4.18;;
66856;SDS011;53766;50.280;19.160;2022-11-06T05:54:00;11.38;;;4.07;;
66856;SDS011;53766;50.280;19.160;2022-11-06T05:56:28;8.82;;;4.28;;
66856;SDS011;53766;50.280;19.160;2022-11-06T05:58:55;8.32;;;3.60;;
66856;SDS011;53766;50.280;19.160;2022-11-06T06:01:22;8.13;;;3.85;;
66856;SDS011;53766;50.280;19.160;2022-11-06T06:03:50;8.70;;;4.07;;
66856;SDS011;53766;50.280;19.160;2022-11-06T06:06:17;6.25;;;3.72;;
66856;SDS011;53766;50.280;19.160;2022-11-06T06:08:46;8.25;;;3.78;;
66856;SDS011;53766;50.280;19.160;2022-11-06T06:11:14;7.45;;;3.90;;
66856;SDS011;53766;50.280;19.160;2022-11-06T06:13:41;6.35;;;3.90;;
66856;SDS011;53766;50.280;19.160;2022-11-06T06:16:09;6.78;;;3.97;;
66856;SDS011;53766;50.280;19.160;2022-11-06T06:18:37;7.15;;;4.05;;
66856;SDS011;53766;50.280;19.160;2022-11-06T06:21:04;7.13;;;3.72;;
66856;SDS011;53766;50.280;19.160;2022-11-06T06:23:32;6.40;;;3.97;;
66856;SDS011;53766;50.280;19.160;2022-11-06T06:25:59;9.82;;;4.03;;
66856;SDS011;53766;50.280;19.160;2022-11-06T06:28:27;7.22;;;3.90;;
66856;SDS011;53766;50.280;19.160;2022-11-06T06:30:54;7.78;;;3.83;;
66856;SDS011;53766;50.280;19.160;2022-11-06T06:33:27;8.45;;;3.85;;
66856;SDS011;53766;50.280;19.160;2022-11-06T06:35:55;5.93;;;4.18;;
66856;SDS011;53766;50.280;19.160;2022-11-06T06:38:22;5.40;;;3.30;;
66856;SDS011;53766;50.280;19.160;2022-11-06T06:40:52;6.45;;;3.65;;
66856;SDS011;53766;50.280;19.160;2022-11-06T06:43:20;8.68;;;5.30;;
66856;SDS011;53766;50.280;19.160;2022-11-06T06:45:47;11.77;;;5.45;;
66856;SDS011;53766;50.280;19.160;2022-11-06T06:48:15;11.90;;;5.95;;
66856;SDS011;53766;50.280;19.160;2022-11-06T06:50:43;15.65;;;7.50;;
66856;SDS011;53766;50.280;19.160;2022-11-06T06:53:10;13.27;;;7.20;;
66856;SDS011;53766;50.280;19.160;2022-11-06T06:55:39;17.35;;;8.95;;
66856;SDS011;53766;50.280;19.160;2022-11-06T06:58:08;16.38;;;8.93;;
66856;SDS011;53766;50.280;19.160;2022-11-06T07:00:44;20.95;;;9.98;;
66856;SDS011;53766;50.280;19.160;2022-11-06T07:03:12;25.02;;;11.35;;
66856;SDS011;53766;50.280;19.160;2022-11-06T07:05:40;26.10;;;12.82;;
66856;SDS011;53766;50.280;19.160;2022-11-06T07:08:07;26.33;;;12.45;;
66856;SDS011;53766;50.280;19.160;2022-11-06T07:10:35;26.42;;;13.57;;
66856;SDS011;53766;50.280;19.160;2022-11-06T07:13:03;24.90;;;12.90;;
66856;SDS011;53766;50.280;19.160;2022-11-06T07:15:31;22.90;;;12.18;;
66856;SDS011;53766;50.280;19.160;2022-11-06T07:18:00;25.52;;;12.30;;
66856;SDS011;53766;50.280;19.160;2022-11-06T07:20:29;21.85;;;10.52;;
66856;SDS011;53766;50.280;19.160;2022-11-06T07:22:57;23.08;;;10.63;;
66856;SDS011;53766;50.280;19.160;2022-11-06T07:25:25;23.67;;;11.93;;
66856;SDS011;53766;50.280;19.160;2022-11-06T07:27:52;20.65;;;11.15;;
66856;SDS011;53766;50.280;19.160;2022-11-06T07:30:28;19.45;;;10.32;;
66856;SDS011;53766;50.280;19.160;2022-11-06T07:32:58;19.55;;;10.57;;
66856;SDS011;53766;50.280;19.160;2022-11-06T07:35:27;20.98;;;10.38;;
66856;SDS011;53766;50.280;19.160;2022-11-06T07:37:55;77.35;;;12.02;;
66856;SDS011;53766;50.280;19.160;2022-11-06T07:40:23;22.52;;;10.27;;
66856;SDS011;53766;50.280;19.160;2022-11-06T07:42:51;19.63;;;9.82;;
66856;SDS011;53766;50.280;19.160;2022-11-06T07:45:18;18.60;;;9.80;;
66856;SDS011;53766;50.280;19.160;2022-11-06T07:47:46;20.00;;;9.55;;
66856;SDS011;53766;50.280;19.160;2022-11-06T07:50:13;19.33;;;10.60;;
66856;SDS011;53766;50.280;19.160;2022-11-06T07:52:41;22.48;;;10.80;;
66856;SDS011;53766;50.280;19.160;2022-11-06T07:55:08;19.05;;;9.88;;
66856;SDS011;53766;50.280;19.160;2022-11-06T07:57:36;19.90;;;9.95;;
66856;SDS011;53766;50.280;19.160;2022-11-06T08:00:04;17.90;;;9.23;;
66856;SDS011;53766;50.280;19.160;2022-11-06T08:02:32;17.48;;;9.63;;
66856;SDS011;53766;50.280;19.160;2022-11-06T08:05:00;20.20;;;10.60;;
66856;SDS011;53766;50.280;19.160;2022-11-06T08:07:28;16.00;;;9.25;;
66856;SDS011;53766;50.280;19.160;2022-11-06T08:09:55;18.73;;;9.90;;
66856;SDS011;53766;50.280;19.160;2022-11-06T08:12:23;16.25;;;9.15;;
66856;SDS011;53766;50.280;19.160;2022-11-06T08:14:50;17.08;;;10.07;;
66856;SDS011;53766;50.280;19.160;2022-11-06T08:17:18;20.25;;;9.27;;
66856;SDS011;53766;50.280;19.160;2022-11-06T08:19:45;25.38;;;9.20;;
66856;SDS011;53766;50.280;19.160;2022-11-06T08:22:13;15.07;;;8.80;;
66856;SDS011;53766;50.280;19.160;2022-11-06T08:24:40;16.88;;;8.98;;
66856;SDS011;53766;50.280;19.160;2022-11-06T08:27:08;16.98;;;9.48;;
66856;SDS011;53766;50.280;19.160;2022-11-06T08:29:35;19.17;;;9.93;;
66856;SDS011;53766;50.280;19.160;2022-11-06T08:32:07;21.05;;;9.20;;
66856;SDS011;53766;50.280;19.160;2022-11-06T08:34:35;19.58;;;9.32;;
66856;SDS011;53766;50.280;19.160;2022-11-06T08:37:02;17.45;;;8.93;;
66856;SDS011;53766;50.280;19.160;2022-11-06T08:39:30;17.33;;;8.95;;
66856;SDS011;53766;50.280;19.160;2022-11-06T08:41:57;17.73;;;9.10;;
66856;SDS011;53766;50.280;19.160;2022-11-06T08:44:25;16.77;;;9.35;;
66856;SDS011;53766;50.280;19.160;2022-11-06T08:46:52;20.40;;;8.98;;
66856;SDS011;53766;50.280;19.160;2022-11-06T08:49:20;18.25;;;8.45;;
66856;SDS011;53766;50.280;19.160;2022-11-06T08:51:47;16.35;;;8.70;;
66856;SDS011;53766;50.280;19.160;2022-11-06T08:54:15;15.70;;;8.50;;
66856;SDS011;53766;50.280;19.160;2022-11-06T08:56:42;16.08;;;8.40;;
66856;SDS011;53766;50.280;19.160;2022-11-06T08:59:11;16.33;;;8.43;;
66856;SDS011;53766;50.280;19.160;2022-11-06T09:01:38;17.33;;;8.35;;
66856;SDS011;53766;50.280;19.160;2022-11-06T09:04:06;18.83;;;8.25;;
66856;SDS011;53766;50.280;19.160;2022-11-06T09:06:34;17.95;;;7.93;;
66856;SDS011;53766;50.280;19.160;2022-11-06T09:09:02;15.98;;;8.48;;
66856;SDS011;53766;50.280;19.160;2022-11-06T09:11:30;14.27;;;8.15;;
66856;SDS011;53766;50.280;19.160;2022-11-06T09:13:58;14.65;;;7.85;;
66856;SDS011;53766;50.280;19.160;2022-11-06T09:16:26;14.82;;;8.23;;
66856;SDS011;53766;50.280;19.160;2022-11-06T09:18:54;16.10;;;7.72;;
66856;SDS011;53766;50.280;19.160;2022-11-06T09:21:23;14.60;;;7.70;;
66856;SDS011;53766;50.280;19.160;2022-11-06T09:23:51;20.15;;;8.10;;
66856;SDS011;53766;50.280;19.160;2022-11-06T09:26:18;19.05;;;7.80;;
66856;SDS011;53766;50.280;19.160;2022-11-06T09:28:46;20.38;;;9.55;;
66856;SDS011;53766;50.280;19.160;2022-11-06T09:31:13;54.03;;;10.07;;
66856;SDS011;53766;50.280;19.160;2022-11-06T09:33:41;16.77;;;9.13;;
66856;SDS011;53766;50.280;19.160;2022-11-06T09:36:08;22.50;;;8.57;;
66856;SDS011;53766;50.280;19.160;2022-11-06T09:38:36;15.77;;;8.38;;
66856;SDS011;53766;50.280;19.160;2022-11-06T09:41:03;17.60;;;8.13;;
66856;SDS011;53766;50.280;19.160;2022-11-06T09:43:47;29.38;;;14.00;;
66856;SDS011;53766;50.280;19.160;2022-11-06T09:46:38;26.73;;;15.65;;
66856;SDS011;53766;50.280;19.160;2022-11-06T09:55:23;50.72;;;21.50;;
66856;SDS011;53766;50.280;19.160;2022-11-06T09:57:57;38.85;;;18.05;;
66856;SDS011;53766;50.280;19.160;2022-11-06T10:00:28;33.70;;;17.35;;
66856;SDS011;53766;50.280;19.160;2022-11-06T10:02:56;35.75;;;17.45;;
66856;SDS011;53766;50.280;19.160;2022-11-06T10:05:32;31.17;;;15.07;;
66856;SDS011;53766;50.280;19.160;2022-11-06T10:08:03;35.83;;;14.18;;
66856;SDS011;53766;50.280;19.160;2022-11-06T10:24:10;22.17;;;9.55;;
66856;SDS011;53766;50.280;19.160;2022-11-06T10:26:56;19.02;;;9.10;;
66856;SDS011;53766;50.280;19.160;2022-11-06T10:34:59;16.65;;;8.27;;
66856;SDS011;53766;50.280;19.160;2022-11-06T10:40:30;16.33;;;7.75;;
66856;SDS011;53766;50.280;19.160;2022-11-06T10:43:06;12.52;;;6.97;;
66856;SDS011;53766;50.280;19.160;2022-11-06T10:45:34;15.77;;;7.50;;
66856;SDS011;53766;50.280;19.160;2022-11-06T10:48:20;15.35;;;7.22;;
66856;SDS011;53766;50.280;19.160;2022-11-06T10:56:36;17.58;;;8.15;;
66856;SDS011;53766;50.280;19.160;2022-11-06T10:59:31;12.93;;;6.47;;
66856;SDS011;53766;50.280;19.160;2022-11-06T11:02:00;13.20;;;7.07;;
66856;SDS011;53766;50.280;19.160;2022-11-06T11:04:30;14.55;;;6.65;;
66856;SDS011;53766;50.280;19.160;2022-11-06T11:07:05;10.20;;;6.00;;
66856;SDS011;53766;50.280;19.160;2022-11-06T11:09:47;12.25;;;6.43;;
66856;SDS011;53766;50.280;19.160;2022-11-06T11:12:19;13.40;;;7.38;;
66856;SDS011;53766;50.280;19.160;2022-11-06T11:15:05;12.93;;;6.70;;
66856;SDS011;53766;50.280;19.160;2022-11-06T11:17:38;12.05;;;6.72;;
66856;SDS011;53766;50.280;19.160;2022-11-06T11:20:30;12.13;;;6.18;;
66856;SDS011;53766;50.280;19.160;2022-11-06T11:23:03;9.45;;;5.85;;
66856;SDS011;53766;50.280;19.160;2022-11-06T11:25:46;12.38;;;7.25;;
66856;SDS011;53766;50.280;19.160;2022-11-06T11:28:20;13.90;;;6.60;;
66856;SDS011;53766;50.280;19.160;2022-11-06T11:33:35;11.90;;;6.30;;
66856;SDS011;53766;50.280;19.160;2022-11-06T11:36:06;12.48;;;6.78;;
66856;SDS011;53766;50.280;19.160;2022-11-06T11:38:36;13.05;;;6.63;;
66856;SDS011;53766;50.280;19.160;2022-11-06T11:41:11;11.93;;;5.78;;
66856;SDS011;53766;50.280;19.160;2022-11-06T11:43:40;11.15;;;5.95;;
66856;SDS011;53766;50.280;19.160;2022-11-06T11:48:45;9.40;;;5.68;;
66856;SDS011;53766;50.280;19.160;2022-11-06T11:56:28;11.02;;;6.13;;
66856;SDS011;53766;50.280;19.160;2022-11-06T11:59:21;11.73;;;5.75;;
66856;SDS011;53766;50.280;19.160;2022-11-06T12:01:53;10.25;;;5.78;;
66856;SDS011;53766;50.280;19.160;2022-11-06T12:04:32;10.82;;;5.38;;
66856;SDS011;53766;50.280;19.160;2022-11-06T12:07:06;9.30;;;5.50;;
66856;SDS011;53766;50.280;19.160;2022-11-06T12:09:42;11.07;;;6.00;;
66856;SDS011;53766;50.280;19.160;2022-11-06T12:12:18;9.07;;;5.40;;
66856;SDS011;53766;50.280;19.160;2022-11-06T12:15:36;8.40;;;5.25;;
66856;SDS011;53766;50.280;19.160;2022-11-06T12:17:53;8.68;;;4.78;;
66856;SDS011;53766;50.280;19.160;2022-11-06T12:20:37;9.32;;;5.45;;
66856;SDS011;53766;50.280;19.160;2022-11-06T12:23:12;11.68;;;5.57;;
66856;SDS011;53766;50.280;19.160;2022-11-06T12:25:43;10.98;;;5.32;;
66856;SDS011;53766;50.280;19.160;2022-11-06T12:28:18;11.40;;;5.38;;
66856;SDS011;53766;50.280;19.160;2022-11-06T12:30:51;10.35;;;5.03;;
66856;SDS011;53766;50.280;19.160;2022-11-06T12:33:26;8.48;;;5.30;;
66856;SDS011;53766;50.280;19.160;2022-11-06T12:36:17;9.45;;;4.80;;
66856;SDS011;53766;50.280;19.160;2022-11-06T12:38:48;8.65;;;5.00;;
66856;SDS011;53766;50.280;19.160;2022-11-06T12:41:29;8.00;;;4.65;;
66856;SDS011;53766;50.280;19.160;2022-11-06T12:44:00;8.32;;;4.53;;
66856;SDS011;53766;50.280;19.160;2022-11-06T12:47:04;9.93;;;4.90;;
66856;SDS011;53766;50.280;19.160;2022-11-06T12:55:17;7.80;;;4.80;;
66856;SDS011;53766;50.280;19.160;2022-11-06T13:00:20;7.32;;;4.03;;
66856;SDS011;53766;50.280;19.160;2022-11-06T13:09:11;10.32;;;4.93;;
66856;SDS011;53766;50.280;19.160;2022-11-06T13:12:28;10.77;;;5.15;;
66856;SDS011;53766;50.280;19.160;2022-11-06T13:18:21;8.10;;;4.18;;
66856;SDS011;53766;50.280;19.160;2022-11-06T13:23:47;10.63;;;5.05;;
66856;SDS011;53766;50.280;19.160;2022-11-06T13:29:01;9.13;;;4.40;;
66856;SDS011;53766;50.280;19.160;2022-11-06T13:31:35;6.40;;;4.03;;
66856;SDS011;53766;50.280;19.160;2022-11-06T13:34:07;7.70;;;4.60;;
66856;SDS011;53766;50.280;19.160;2022-11-06T13:36:43;9.23;;;4.43;;
66856;SDS011;53766;50.280;19.160;2022-11-06T13:39:23;7.22;;;4.28;;
66856;SDS011;53766;50.280;19.160;2022-11-06T13:42:17;9.85;;;4.75;;
66856;SDS011;53766;50.280;19.160;2022-11-06T13:44:55;9.73;;;4.38;;
66856;SDS011;53766;50.280;19.160;2022-11-06T13:47:28;9.82;;;4.57;;
66856;SDS011;53766;50.280;19.160;2022-11-06T13:50:11;8.40;;;4.55;;
66856;SDS011;53766;50.280;19.160;2022-11-06T13:56:05;6.88;;;4.35;;
66856;SDS011;53766;50.280;19.160;2022-11-06T14:06:46;10.52;;;4.40;;
66856;SDS011;53766;50.280;19.160;2022-11-06T14:09:18;6.85;;;3.83;;
66856;SDS011;53766;50.280;19.160;2022-11-06T14:11:53;5.97;;;3.85;;
66856;SDS011;53766;50.280;19.160;2022-11-06T14:14:24;10.10;;;4.57;;
66856;SDS011;53766;50.280;19.160;2022-11-06T14:22:51;7.00;;;3.85;;
66856;SDS011;53766;50.280;19.160;2022-11-06T14:38:52;7.05;;;4.07;;
66856;SDS011;53766;50.280;19.160;2022-11-06T14:46:38;5.47;;;3.80;;
66856;SDS011;53766;50.280;19.160;2022-11-06T14:49:06;7.10;;;3.80;;
66856;SDS011;53766;50.280;19.160;2022-11-06T14:51:42;6.53;;;3.70;;
66856;SDS011;53766;50.280;19.160;2022-11-06T14:54:19;7.60;;;3.92;;
66856;SDS011;53766;50.280;19.160;2022-11-06T14:56:51;6.97;;;4.10;;
66856;SDS011;53766;50.280;19.160;2022-11-06T14:59:26;6.90;;;3.50;;
66856;SDS011;53766;50.280;19.160;2022-11-06T15:05:07;5.20;;;3.38;;
66856;SDS011;53766;50.280;19.160;2022-11-06T15:13:14;5.57;;;3.78;;
66856;SDS011;53766;50.280;19.160;2022-11-06T15:15:51;11.93;;;4.65;;
66856;SDS011;53766;50.280;19.160;2022-11-06T15:18:23;58.97;;;19.13;;
66856;SDS011;53766;50.280;19.160;2022-11-06T15:20:55;87.63;;;31.00;;
66856;SDS011;53766;50.280;19.160;2022-11-06T15:26:19;175.15;;;65.65;;
66856;SDS011;53766;50.280;19.160;2022-11-06T15:31:44;229.85;;;101.22;;
66856;SDS011;53766;50.280;19.160;2022-11-06T15:34:37;305.38;;;131.32;;
66856;SDS011;53766;50.280;19.160;2022-11-06T15:37:19;399.08;;;190.65;;
66856;SDS011;53766;50.280;19.160;2022-11-06T15:39:53;481.85;;;261.63;;
66856;SDS011;53766;50.280;19.160;2022-11-06T15:42:27;531.42;;;300.52;;
66856;SDS011;53766;50.280;19.160;2022-11-06T15:45:05;537.50;;;303.05;;
66856;SDS011;53766;50.280;19.160;2022-11-06T15:47:34;513.05;;;293.35;;
66856;SDS011;53766;50.280;19.160;2022-11-06T15:52:38;450.83;;;239.18;;
66856;SDS011;53766;50.280;19.160;2022-11-06T15:55:11;442.27;;;229.48;;
66856;SDS011;53766;50.280;19.160;2022-11-06T15:57:50;417.92;;;213.05;;
66856;SDS011;53766;50.280;19.160;2022-11-06T16:00:20;354.90;;;181.13;;
66856;SDS011;53766;50.280;19.160;2022-11-06T16:05:24;343.95;;;171.65;;
66856;SDS011;53766;50.280;19.160;2022-11-06T16:07:55;328.90;;;165.82;;
66856;SDS011;53766;50.280;19.160;2022-11-06T16:10:23;315.05;;;152.57;;
66856;SDS011;53766;50.280;19.160;2022-11-06T16:12:52;308.85;;;148.95;;
66856;SDS011;53766;50.280;19.160;2022-11-06T16:18:18;276.60;;;134.52;;
66856;SDS011;53766;50.280;19.160;2022-11-06T16:23:37;254.70;;;128.27;;
66856;SDS011;53766;50.280;19.160;2022-11-06T16:26:09;251.95;;;124.95;;
66856;SDS011;53766;50.280;19.160;2022-11-06T16:28:43;245.63;;;119.07;;
66856;SDS011;53766;50.280;19.160;2022-11-06T16:31:17;247.02;;;120.20;;
66856;SDS011;53766;50.280;19.160;2022-11-06T16:33:53;230.52;;;116.43;;
66856;SDS011;53766;50.280;19.160;2022-11-06T16:36:24;228.73;;;114.38;;
66856;SDS011;53766;50.280;19.160;2022-11-06T16:38:53;228.00;;;111.60;;
66856;SDS011;53766;50.280;19.160;2022-11-06T16:49:46;211.32;;;103.60;;
66856;SDS011;53766;50.280;19.160;2022-11-06T16:55:05;206.07;;;97.88;;
66856;SDS011;53766;50.280;19.160;2022-11-06T16:57:40;188.85;;;93.15;;
66856;SDS011;53766;50.280;19.160;2022-11-06T17:05:31;173.30;;;87.00;;
66856;SDS011;53766;50.280;19.160;2022-11-06T17:10:45;173.45;;;87.20;;
66856;SDS011;53766;50.280;19.160;2022-11-06T17:18:22;166.65;;;81.57;;
66856;SDS011;53766;50.280;19.160;2022-11-06T17:21:01;163.35;;;80.18;;
66856;SDS011;53766;50.280;19.160;2022-11-06T17:23:31;160.75;;;80.85;;
66856;SDS011;53766;50.280;19.160;2022-11-06T17:26:01;158.10;;;76.43;;
66856;SDS011;53766;50.280;19.160;2022-11-06T17:28:29;150.25;;;76.43;;
66856;SDS011;53766;50.280;19.160;2022-11-06T17:30:57;146.80;;;76.88;;
66856;SDS011;53766;50.280;19.160;2022-11-06T17:33:24;165.10;;;75.30;;
66856;SDS011;53766;50.280;19.160;2022-11-06T17:35:53;150.30;;;74.22;;
66856;SDS011;53766;50.280;19.160;2022-11-06T17:38:20;145.32;;;73.35;;
66856;SDS011;53766;50.280;19.160;2022-11-06T17:40:48;141.23;;;71.80;;
66856;SDS011;53766;50.280;19.160;2022-11-06T17:43:16;143.15;;;70.10;;
66856;SDS011;53766;50.280;19.160;2022-11-06T17:45:43;144.32;;;70.28;;
66856;SDS011;53766;50.280;19.160;2022-11-06T17:48:14;142.85;;;69.68;;
66856;SDS011;53766;50.280;19.160;2022-11-06T17:50:42;138.93;;;67.70;;
66856;SDS011;53766;50.280;19.160;2022-11-06T17:53:29;142.10;;;66.60;;
66856;SDS011;53766;50.280;19.160;2022-11-06T17:55:56;137.15;;;67.07;;
66856;SDS011;53766;50.280;19.160;2022-11-06T17:58:24;139.05;;;67.93;;
66856;SDS011;53766;50.280;19.160;2022-11-06T18:00:51;134.73;;;66.18;;
66856;SDS011;53766;50.280;19.160;2022-11-06T18:03:19;134.73;;;68.18;;
66856;SDS011;53766;50.280;19.160;2022-11-06T18:05:48;126.45;;;63.03;;
66856;SDS011;53766;50.280;19.160;2022-11-06T18:08:16;126.13;;;63.15;;
66856;SDS011;53766;50.280;19.160;2022-11-06T18:10:43;126.50;;;63.33;;
66856;SDS011;53766;50.280;19.160;2022-11-06T18:13:11;120.93;;;61.40;;
66856;SDS011;53766;50.280;19.160;2022-11-06T18:15:38;129.90;;;62.90;;
66856;SDS011;53766;50.280;19.160;2022-11-06T18:18:06;125.15;;;61.10;;